createdAt,value
2022-08-26T00:01:29.990Z,66.10
2022-08-26T00:04:32.325Z,66.03
2022-08-26T00:07:34.120Z,66.25
2022-08-26T00:10:37.383Z,66.44
2022-08-26T00:13:39.188Z,66.46
2022-08-26T00:16:47.973Z,66.59
2022-08-26T00:19:51.274Z,67.24
2022-08-26T00:22:55.358Z,67.24
2022-08-26T00:25:58.940Z,67.16
2022-08-26T00:29:01.321Z,67.48
2022-08-26T00:32:03.939Z,67.62
2022-08-26T00:35:06.573Z,67.73
2022-08-26T00:38:09.948Z,68.10
2022-08-26T00:41:13.470Z,68.33
2022-08-26T00:44:14.969Z,68.29
2022-08-26T00:47:21.896Z,68.64
2022-08-26T00:50:26.134Z,68.83
2022-08-26T00:53:30.887Z,69.04
2022-08-26T00:56:36.870Z,69.40
2022-08-26T00:59:39.439Z,69.49
2022-08-26T01:02:41.199Z,69.54
2022-08-26T01:05:48.543Z,69.63
2022-08-26T01:08:52.177Z,69.88
2022-08-26T01:11:56.262Z,70.00
2022-08-26T01:14:58.091Z,69.90
2022-08-26T01:17:59.842Z,70.19
2022-08-26T01:21:06.220Z,70.75
2022-08-26T01:24:10.547Z,71.15
2022-08-26T01:27:13.380Z,71.48
2022-08-26T01:30:15.067Z,71.43
2022-08-26T01:33:18.959Z,71.43
2022-08-26T01:36:20.618Z,71.82
2022-08-26T01:39:24.243Z,72.09
2022-08-26T01:42:27.455Z,72.04
2022-08-26T01:45:32.932Z,72.59
2022-08-26T01:48:36.637Z,72.70
2022-08-26T01:51:39.089Z,72.72
2022-08-26T01:54:42.795Z,72.97
2022-08-26T01:57:49.708Z,72.55
2022-08-26T02:00:54.451Z,72.44
2022-08-26T02:03:58.549Z,72.99
2022-08-26T02:07:02.760Z,73.21
2022-08-26T02:10:07.303Z,73.19
2022-08-26T02:13:10.199Z,73.50
2022-08-26T02:16:13.187Z,73.92
2022-08-26T02:19:17.134Z,74.00
2022-08-26T02:22:20.223Z,73.87
2022-08-26T02:25:25.189Z,73.74
2022-08-26T02:28:28.486Z,73.43
2022-08-26T02:31:30.328Z,73.67
2022-08-26T02:34:33.078Z,73.95
2022-08-26T02:37:34.797Z,74.09
2022-08-26T02:40:41.079Z,74.24
2022-08-26T02:43:43.426Z,74.31
2022-08-26T02:46:47.138Z,74.68
2022-08-26T02:49:49.748Z,74.84
2022-08-26T02:52:51.912Z,74.90
2022-08-26T02:55:55.334Z,74.94
2022-08-26T02:58:59.431Z,75.37
2022-08-26T03:02:01.720Z,75.15
2022-08-26T03:05:03.840Z,75.36
2022-08-26T03:08:05.762Z,75.87
2022-08-26T03:11:08.722Z,76.02
2022-08-26T03:14:13.370Z,76.21
2022-08-26T03:17:16.003Z,75.93
2022-08-26T03:20:17.695Z,76.20
2022-08-26T03:23:19.150Z,75.63
2022-08-26T03:26:23.088Z,75.72
2022-08-26T03:29:43.193Z,75.72
2022-08-26T03:32:44.920Z,75.89
2022-08-26T03:35:50.541Z,75.98
2022-08-26T03:38:52.422Z,76.02
2022-08-26T03:41:55.561Z,76.31
2022-08-26T03:44:57.315Z,76.28
2022-08-26T03:47:59.817Z,76.50
2022-08-26T03:51:01.507Z,76.53
2022-08-26T03:54:05.034Z,76.43
2022-08-26T03:57:11.093Z,76.59
2022-08-26T04:00:15.049Z,76.84
2022-08-26T04:03:39.986Z,77.27
2022-08-26T04:06:45.219Z,77.05
2022-08-26T04:09:46.877Z,76.96
2022-08-26T04:12:51.020Z,76.95
2022-08-26T04:15:52.718Z,76.72
2022-08-26T04:18:54.414Z,77.22
2022-08-26T04:21:56.179Z,77.30
2022-08-26T04:24:58.307Z,77.21
2022-08-26T04:28:02.447Z,77.43
2022-08-26T04:31:04.401Z,77.99
2022-08-26T04:34:07.009Z,78.25
2022-08-26T04:37:08.577Z,78.21
2022-08-26T04:40:10.234Z,78.28
2022-08-26T04:43:14.216Z,78.12
2022-08-26T04:46:17.446Z,78.37
2022-08-26T04:49:20.965Z,78.20
2022-08-26T04:52:22.505Z,78.10
2022-08-26T04:55:38.578Z,78.18
2022-08-26T04:58:45.676Z,78.08
2022-08-26T05:01:48.662Z,78.15
2022-08-26T05:04:51.952Z,78.16
2022-08-26T05:07:54.776Z,78.41
2022-08-26T05:10:56.922Z,78.31
2022-08-26T05:14:02.280Z,78.36
2022-08-26T05:17:04.006Z,77.85
2022-08-26T05:20:06.826Z,77.94
2022-08-26T05:23:08.579Z,78.27
2022-08-26T05:26:10.670Z,78.05
2022-08-26T05:29:14.225Z,78.43
2022-08-26T05:32:16.007Z,78.68
2022-08-26T05:35:18.037Z,78.82
2022-08-26T05:38:21.154Z,79.06
2022-08-26T05:41:25.003Z,79.47
2022-08-26T05:44:29.321Z,79.26
2022-08-26T05:47:51.378Z,79.18
2022-08-26T05:50:53.318Z,79.53
2022-08-26T05:53:55.885Z,79.54
2022-08-26T05:57:00.321Z,79.59
2022-08-26T06:00:04.533Z,79.71
2022-08-26T06:03:07.499Z,79.74
2022-08-26T06:06:11.073Z,80.15
2022-08-26T06:09:12.859Z,80.12
2022-08-26T06:12:15.772Z,79.88
2022-08-26T06:15:21.992Z,79.71
2022-08-26T06:18:27.993Z,79.79
2022-08-26T06:21:31.962Z,79.88
2022-08-26T06:24:52.519Z,79.40
2022-08-26T06:27:54.149Z,79.63
2022-08-26T06:30:57.329Z,79.32
2022-08-26T06:33:59.920Z,79.36
2022-08-26T06:37:02.839Z,79.04
2022-08-26T06:40:05.600Z,78.73
2022-08-26T06:43:07.325Z,78.47
2022-08-26T06:46:11.822Z,78.40
2022-08-26T06:49:13.567Z,78.11
2022-08-26T06:52:23.107Z,77.90
2022-08-26T06:55:27.060Z,77.26
2022-08-26T06:58:28.898Z,77.32
2022-08-26T07:01:33.729Z,77.18
2022-08-26T07:04:35.999Z,77.12
2022-08-26T07:07:38.493Z,76.58
2022-08-26T07:10:40.046Z,76.57
2022-08-26T07:13:41.802Z,76.29
2022-08-26T07:16:47.458Z,76.09
2022-08-26T07:19:49.144Z,75.90
2022-08-26T07:22:50.950Z,75.73
2022-08-26T07:25:52.428Z,75.46
2022-08-26T07:28:55.840Z,75.54
2022-08-26T07:31:59.821Z,75.44
2022-08-26T07:35:01.428Z,75.21
2022-08-26T07:38:03.170Z,75.04
2022-08-26T07:41:05.234Z,74.88
2022-08-26T07:44:08.719Z,74.37
2022-08-26T07:47:25.276Z,74.50
2022-08-26T07:50:49.355Z,74.59
2022-08-26T07:53:52.317Z,74.35
2022-08-26T07:56:54.826Z,73.51
2022-08-26T07:59:58.125Z,73.38
2022-08-26T08:03:02.087Z,73.22
2022-08-26T08:06:04.097Z,73.13
2022-08-26T08:09:08.781Z,72.51
2022-08-26T08:12:14.136Z,72.21
2022-08-26T08:15:16.553Z,72.66
2022-08-26T08:18:20.491Z,72.26
2022-08-26T08:21:23.926Z,72.01
2022-08-26T08:24:25.843Z,71.28
2022-08-26T08:27:27.737Z,71.10
2022-08-26T08:30:29.861Z,70.40
2022-08-26T08:33:33.771Z,70.31
2022-08-26T08:36:36.275Z,70.07
2022-08-26T08:39:37.944Z,69.81
2022-08-26T08:42:44.258Z,69.48
2022-08-26T08:45:47.344Z,68.89
2022-08-26T08:48:56.784Z,68.70
2022-08-26T08:52:02.605Z,68.55
2022-08-26T08:55:11.164Z,67.07
2022-08-26T08:58:17.497Z,66.92
2022-08-26T09:01:28.273Z,66.35
2022-08-26T09:04:41.940Z,67.55
2022-08-26T09:07:45.114Z,65.95
2022-08-26T09:10:51.473Z,65.89
2022-08-26T09:13:53.750Z,65.84
2022-08-26T09:17:01.509Z,65.30
2022-08-26T09:20:12.283Z,65.02
2022-08-26T09:23:14.537Z,65.11
2022-08-26T09:26:17.595Z,65.51
2022-08-26T09:32:24.916Z,64.38
2022-08-26T09:35:30.997Z,64.56
2022-08-26T09:38:35.718Z,63.99
2022-08-26T09:41:37.854Z,64.25
2022-08-26T09:44:53.285Z,64.09
2022-08-26T09:47:56.302Z,63.82
2022-08-26T09:51:01.308Z,63.41
2022-08-26T09:54:05.756Z,63.28
2022-08-26T09:57:16.314Z,62.95
2022-08-26T10:00:32.388Z,62.26
2022-08-26T10:03:36.378Z,62.44
2022-08-26T10:06:41.894Z,62.12
2022-08-26T10:09:44.498Z,61.90
2022-08-26T10:12:56.507Z,60.95
2022-08-26T10:16:01.802Z,60.67
2022-08-26T10:19:06.563Z,60.09
2022-08-26T10:22:13.704Z,58.81
2022-08-26T10:25:17.121Z,58.38
2022-08-26T10:28:21.674Z,58.39
2022-08-26T10:31:27.821Z,58.78
2022-08-26T10:34:29.473Z,58.18
2022-08-26T10:37:34.934Z,58.33
2022-08-26T10:40:44.345Z,58.77
2022-08-26T10:43:48.995Z,58.10
2022-08-26T10:46:54.465Z,58.48
2022-08-26T10:50:00.550Z,58.36
2022-08-26T10:53:12.094Z,58.39
2022-08-26T10:56:19.369Z,58.41
2022-08-26T10:59:24.267Z,58.57
2022-08-26T11:02:35.949Z,58.18
2022-08-26T11:05:37.505Z,58.38
2022-08-26T11:08:47.338Z,58.47
2022-08-26T11:11:49.789Z,58.34
2022-08-26T11:14:53.270Z,58.46
2022-08-26T11:17:56.929Z,58.21
2022-08-26T11:20:58.449Z,58.38
2022-08-26T11:24:01.742Z,58.14
2022-08-26T11:27:04.237Z,58.02
2022-08-26T11:30:07.777Z,57.42
2022-08-26T11:33:09.393Z,56.08
2022-08-26T11:36:12.282Z,56.86
2022-08-26T11:39:18.201Z,55.95
2022-08-26T11:42:27.805Z,56.27
2022-08-26T11:45:32.669Z,55.81
2022-08-26T11:48:35.640Z,55.67
2022-08-26T11:51:40.919Z,54.79
2022-08-26T11:54:58.842Z,55.27
2022-08-26T11:58:07.480Z,55.54
2022-08-26T12:01:11.513Z,56.30
2022-08-26T12:04:17.863Z,57.25
2022-08-26T12:07:23.968Z,57.85
2022-08-26T12:10:29.948Z,58.27
2022-08-26T12:13:33.240Z,57.55
2022-08-26T12:16:39.151Z,55.50
2022-08-26T12:19:41.419Z,53.82
2022-08-26T12:22:43.587Z,54.77
2022-08-26T12:25:50.786Z,55.22
2022-08-26T12:28:55.917Z,54.47
2022-08-26T12:32:07.269Z,54.17
2022-08-26T12:35:10.220Z,52.94
2022-08-26T12:38:12.928Z,52.98
2022-08-26T12:41:29.398Z,52.67
2022-08-26T12:44:33.371Z,52.16
2022-08-26T12:47:43.015Z,51.01
2022-08-26T12:50:50.232Z,50.33
2022-08-26T12:53:51.775Z,50.80
2022-08-26T12:56:54.224Z,51.05
2022-08-26T13:00:11.330Z,51.56
2022-08-26T13:03:38.336Z,51.88
2022-08-26T13:06:40.424Z,52.67
2022-08-26T13:09:45.034Z,52.78
2022-08-26T13:12:46.789Z,53.23
2022-08-26T13:15:48.353Z,53.48
2022-08-26T13:18:56.669Z,53.69
2022-08-26T13:21:59.269Z,53.79
2022-08-26T13:25:01.347Z,53.01
2022-08-26T13:28:03.136Z,53.07
2022-08-26T13:31:05.132Z,54.23
2022-08-26T13:34:09.701Z,55.74
2022-08-26T13:37:13.095Z,56.62
2022-08-26T13:40:14.785Z,57.54
2022-08-26T13:43:17.193Z,58.19
2022-08-26T13:46:20.754Z,57.79
2022-08-26T13:49:24.138Z,58.00
2022-08-26T13:52:30.533Z,57.65
2022-08-26T13:55:32.687Z,57.76
2022-08-26T13:58:34.177Z,57.39
2022-08-26T14:01:36.280Z,57.31
2022-08-26T14:04:39.339Z,55.66
2022-08-26T14:07:40.850Z,54.24
2022-08-26T14:10:42.679Z,54.16
2022-08-26T14:13:44.277Z,53.81
2022-08-26T14:16:59.761Z,54.56
2022-08-26T14:20:04.298Z,53.36
2022-08-26T14:23:14.205Z,52.92
2022-08-26T14:26:28.606Z,54.16
2022-08-26T14:29:31.163Z,56.29
2022-08-26T14:32:33.159Z,58.31
2022-08-26T14:35:36.229Z,58.94
2022-08-26T14:38:37.713Z,59.13
2022-08-26T14:41:42.599Z,59.17
2022-08-26T14:44:45.828Z,58.75
2022-08-26T14:47:48.211Z,57.29
2022-08-26T14:50:51.631Z,56.63
2022-08-26T14:54:11.777Z,56.87
2022-08-26T14:57:13.983Z,56.91
2022-08-26T15:00:15.786Z,56.59
2022-08-26T15:06:20.317Z,56.42
2022-08-26T15:09:22.458Z,56.16
2022-08-26T15:12:24.328Z,55.74
2022-08-26T15:15:26.009Z,55.54
2022-08-26T15:18:27.536Z,54.93
2022-08-26T15:21:33.001Z,54.72
2022-08-26T15:24:34.556Z,54.83
2022-08-26T15:27:36.182Z,54.40
2022-08-26T15:30:38.139Z,54.58
2022-08-26T15:33:40.416Z,55.38
2022-08-26T15:36:44.869Z,55.43
2022-08-26T15:39:46.849Z,55.69
2022-08-26T15:42:51.770Z,56.16
2022-08-26T15:45:59.293Z,57.00
2022-08-26T15:49:01.416Z,57.48
2022-08-26T15:52:05.471Z,57.56
2022-08-26T15:55:07.709Z,57.93
2022-08-26T15:58:10.384Z,58.18
2022-08-26T16:01:15.029Z,58.66
2022-08-26T16:04:28.968Z,58.25
2022-08-26T16:07:32.450Z,58.70
2022-08-26T16:10:34.655Z,59.16
2022-08-26T16:13:39.693Z,60.34
2022-08-26T16:16:42.246Z,62.26
2022-08-26T16:19:43.745Z,64.09
2022-08-26T16:22:46.823Z,66.68
2022-08-26T16:25:48.406Z,67.74
2022-08-26T16:28:49.954Z,68.13
2022-08-26T16:31:53.350Z,68.79
2022-08-26T16:34:57.452Z,67.96
2022-08-26T16:38:00.355Z,67.94
2022-08-26T16:41:03.766Z,69.20
2022-08-26T16:44:05.922Z,69.47
2022-08-26T16:47:07.716Z,68.64
2022-08-26T16:50:10.256Z,68.11
2022-08-26T16:56:15.791Z,68.71
2022-08-26T16:59:19.310Z,68.12
2022-08-26T17:02:21.439Z,68.65
2022-08-26T17:05:25.222Z,69.06
2022-08-26T17:08:28.668Z,68.88
2022-08-26T17:11:30.819Z,69.00
2022-08-26T17:14:33.625Z,68.98
2022-08-26T17:17:35.302Z,68.73
2022-08-26T17:20:37.270Z,69.55
2022-08-26T17:23:43.122Z,70.22
2022-08-26T17:26:48.464Z,69.79
2022-08-26T17:29:55.250Z,69.58
2022-08-26T17:32:56.924Z,70.63
2022-08-26T17:35:59.269Z,70.18
2022-08-26T17:39:02.448Z,69.65
2022-08-26T17:42:04.441Z,70.28
2022-08-26T17:45:06.943Z,70.47
2022-08-26T17:48:08.632Z,70.85
2022-08-26T17:51:13.789Z,71.97
2022-08-26T17:54:17.017Z,71.61
2022-08-26T17:57:18.605Z,71.74
2022-08-26T18:00:23.025Z,71.92
2022-08-26T18:03:24.573Z,72.45
2022-08-26T18:06:26.701Z,72.63
2022-08-26T18:09:31.734Z,71.96
2022-08-26T18:12:33.334Z,72.51
2022-08-26T18:15:35.104Z,72.48
2022-08-26T18:18:36.909Z,72.01
2022-08-26T18:21:38.594Z,72.29
2022-08-26T18:24:41.709Z,72.74
2022-08-26T18:28:00.142Z,73.26
2022-08-26T18:31:02.304Z,73.45
2022-08-26T18:34:03.963Z,73.15
2022-08-26T18:40:18.976Z,73.37
2022-08-26T18:43:21.380Z,73.51
2022-08-26T18:46:25.382Z,74.00
2022-08-26T18:49:30.589Z,73.69
2022-08-26T18:52:32.570Z,75.51
2022-08-26T18:55:36.372Z,75.90
2022-08-26T18:58:38.372Z,75.42
2022-08-26T19:01:40.767Z,75.75
2022-08-26T19:04:42.708Z,75.82
2022-08-26T19:07:44.250Z,76.07
2022-08-26T19:10:51.129Z,76.53
2022-08-26T19:13:55.257Z,76.57
2022-08-26T19:16:57.255Z,76.75
2022-08-26T19:19:59.007Z,76.81
2022-08-26T19:23:05.697Z,76.60
2022-08-26T19:26:13.922Z,77.00
2022-08-26T19:29:15.744Z,77.02
2022-08-26T19:32:17.686Z,77.31
2022-08-26T19:35:19.195Z,77.79
2022-08-26T19:38:21.132Z,77.98
2022-08-26T19:41:34.175Z,78.14
2022-08-26T19:44:57.514Z,78.38
2022-08-26T19:47:59.268Z,78.69
2022-08-26T19:51:03.836Z,78.60
2022-08-26T19:54:05.717Z,79.39
2022-08-26T19:57:08.589Z,79.45
2022-08-26T20:00:11.950Z,79.59
2022-08-26T20:03:14.835Z,79.54
2022-08-26T20:06:17.806Z,79.91
2022-08-26T20:09:21.551Z,79.49
2022-08-26T20:12:24.961Z,80.62
2022-08-26T20:15:26.603Z,80.80
2022-08-26T20:18:48.799Z,81.07
2022-08-26T20:21:50.456Z,80.60
2022-08-26T20:24:52.966Z,79.45
2022-08-26T20:27:55.995Z,80.25
2022-08-26T20:30:57.503Z,81.28
2022-08-26T20:33:59.091Z,81.45
2022-08-26T20:37:00.814Z,82.66
2022-08-26T20:40:02.817Z,82.50
2022-08-26T20:43:06.257Z,81.96
2022-08-26T20:46:08.319Z,82.84
2022-08-26T20:49:18.693Z,83.60
2022-08-26T20:52:21.506Z,82.24
2022-08-26T20:55:23.162Z,82.73
2022-08-26T20:58:26.145Z,83.34
2022-08-26T21:01:30.659Z,82.88
2022-08-26T21:04:32.489Z,83.81
2022-08-26T21:07:34.310Z,83.07
2022-08-26T21:10:36.562Z,83.63
2022-08-26T21:14:03.472Z,82.77
2022-08-26T21:17:01.361Z,82.57
2022-08-26T21:20:03.665Z,83.12
2022-08-26T21:23:05.966Z,83.24
2022-08-26T21:26:08.827Z,83.50
2022-08-26T21:29:13.623Z,84.01
2022-08-26T21:32:15.936Z,84.47
2022-08-26T21:35:17.738Z,85.82
2022-08-26T21:38:19.731Z,86.02
2022-08-26T21:41:25.014Z,85.16
2022-08-26T21:44:27.911Z,86.53
2022-08-26T21:47:30.356Z,88.14
2022-08-26T21:50:31.944Z,88.39
2022-08-26T21:53:33.872Z,88.23
2022-08-26T21:56:39.593Z,89.72
2022-08-26T21:59:42.612Z,88.74
2022-08-26T22:02:44.137Z,89.10
2022-08-26T22:05:47.380Z,89.35
2022-08-26T22:08:48.929Z,90.12
2022-08-26T22:11:50.925Z,90.18
2022-08-26T22:14:54.024Z,90.71
2022-08-26T22:17:55.488Z,90.10
2022-08-26T22:20:58.670Z,89.58
2022-08-26T22:24:00.299Z,89.77
2022-08-26T22:27:01.812Z,90.29
2022-08-26T22:30:05.504Z,90.47
2022-08-26T22:33:07.207Z,90.64
2022-08-26T22:36:14.960Z,91.20
2022-08-26T22:39:17.362Z,90.39
2022-08-26T22:42:18.961Z,91.18
2022-08-26T22:45:22.202Z,91.27
2022-08-26T22:48:24.579Z,90.70
2022-08-26T22:51:28.046Z,91.32
2022-08-26T22:54:29.620Z,91.63
2022-08-26T22:57:31.304Z,92.46
2022-08-26T23:00:34.469Z,92.64
2022-08-26T23:03:36.048Z,92.32
2022-08-26T23:06:39.164Z,92.64
2022-08-26T23:09:40.884Z,92.20
2022-08-26T23:12:42.553Z,92.85
2022-08-26T23:15:45.635Z,93.20
2022-08-26T23:18:47.220Z,93.08
2022-08-26T23:21:49.610Z,93.44
2022-08-26T23:24:51.368Z,92.71
2022-08-26T23:27:52.955Z,93.08
2022-08-26T23:30:55.837Z,92.76
2022-08-26T23:34:16.078Z,92.80
2022-08-26T23:37:19.716Z,92.09
2022-08-26T23:40:27.981Z,92.70
2022-08-26T23:43:29.599Z,93.49
2022-08-26T23:46:33.259Z,93.80
2022-08-26T23:49:35.026Z,93.18
2022-08-26T23:52:55.544Z,93.50
2022-08-26T23:55:57.622Z,93.24
2022-08-26T23:58:59.505Z,92.87
